Time;durP1;ratioP1;P1;durP2;ratioP2;P2;SDS_P1;SDS_P2;PMS_P1;PMS_P2;Temp;Humidity;BMP_temperature;BMP_pressure;BME280_temperature;BME280_humidity;BME280_pressure;Samples;Min_cycle;Max_cycle;Signal;HPM_P1;HPM_P2
2023/10/13 00:01:34;;;;;;;5.37;2.80;;;;;;;21.35;nan;99557.19;4911505;29;20437;-75
2023/10/13 00:04:00;;;;;;;6.33;2.97;;;;;;;21.38;nan;99556.88;4915735;29;20437;-75
2023/10/13 00:06:26;;;;;;;3.13;2.83;;;;;;;21.39;nan;99559.38;4913077;29;21062;-74
2023/10/13 00:08:52;;;;;;;7.37;3.00;;;;;;;21.37;nan;99556.03;4919262;29;20428;-75
2023/10/13 00:11:18;;;;;;;6.37;3.17;;;;;;;21.30;nan;99557.69;4911971;29;20440;-75
2023/10/13 00:13:50;;;;;;;4.27;2.70;;;;;;;21.19;nan;99556.19;4916402;29;20331;-74
2023/10/13 00:16:27;;;;;;;4.50;2.80;;;;;;;21.08;nan;99558.34;4914261;29;20453;-75
2023/10/13 00:18:57;;;;;;;5.40;3.13;;;;;;;21.00;nan;99554.66;4912631;29;20776;-74
2023/10/13 00:21:33;;;;;;;3.70;3.30;;;;;;;20.95;nan;99554.38;4915723;29;20436;-74
2023/10/13 00:24:05;;;;;;;4.53;2.73;;;;;;;20.90;nan;99556.69;4913932;29;21031;-74
2023/10/13 00:26:35;;;;;;;6.03;3.13;;;;;;;20.86;nan;99554.50;4911262;29;20444;-74
2023/10/13 00:31:37;;;;;;;7.83;2.83;;;;;;;20.75;nan;99545.81;4917504;29;20440;-75
2023/10/13 00:34:19;;;;;;;6.07;3.27;;;;;;;20.70;nan;99555.31;4915974;29;20516;-75
2023/10/13 00:39:28;;;;;;;7.23;3.60;;;;;;;20.62;nan;99541.97;4912646;29;20480;-75
2023/10/13 00:41:58;;;;;;;4.23;2.63;;;;;;;20.58;nan;99545.94;4910344;29;20439;-75
2023/10/13 00:44:38;;;;;;;5.30;4.07;;;;;;;20.54;nan;99543.59;4915710;29;20217;-75
2023/10/13 00:47:07;;;;;;;6.83;3.57;;;;;;;20.52;nan;99547.38;4915948;29;20515;-76
2023/10/13 00:49:39;;;;;;;4.77;3.17;;;;;;;20.51;nan;99543.91;4914740;29;20507;-74
2023/10/13 00:52:06;;;;;;;8.17;4.50;;;;;;;20.49;nan;99545.88;4910087;29;20575;-75
2023/10/13 00:54:35;;;;;;;6.03;3.53;;;;;;;20.48;nan;99540.72;4916985;29;20508;-74
2023/10/13 00:57:07;;;;;;;6.53;4.00;;;;;;;20.47;nan;99541.75;4908327;29;20604;-75
2023/10/13 00:59:36;;;;;;;6.80;2.90;;;;;;;20.43;nan;99543.03;4913462;29;21064;-75
2023/10/13 01:02:26;;;;;;;3.80;3.00;;;;;;;20.41;nan;99545.03;4914682;28;20479;-74
2023/10/13 01:04:47;;;;;;;4.10;2.87;;;;;;;20.39;nan;99547.88;4915245;29;20551;-74
2023/10/13 01:07:15;;;;;;;4.40;3.58;;;;;;;20.41;nan;99545.88;4911593;29;20515;-75
2023/10/13 01:09:42;;;;;;;4.87;3.20;;;;;;;20.41;nan;99539.69;4910606;29;20726;-75
2023/10/13 01:12:08;;;;;;;6.00;3.20;;;;;;;20.38;nan;99530.19;4916562;29;20465;-74
2023/10/13 01:14:35;;;;;;;6.33;2.80;;;;;;;20.37;nan;99533.88;4916044;29;20941;-74
2023/10/13 01:17:01;;;;;;;4.43;3.53;;;;;;;20.36;nan;99534.00;4915685;29;20665;-74
2023/10/13 01:19:27;;;;;;;4.67;2.80;;;;;;;20.36;nan;99534.00;4916399;29;20527;-75
2023/10/13 01:21:57;;;;;;;3.83;3.20;;;;;;;20.34;nan;99531.53;4915615;29;20454;-75
2023/10/13 01:24:24;;;;;;;4.43;3.13;;;;;;;20.32;nan;99541.50;4905960;29;20613;-75
2023/10/13 01:26:52;;;;;;;5.80;2.60;;;;;;;20.30;nan;99527.50;4911553;29;20531;-74
2023/10/13 01:29:19;;;;;;;5.50;3.23;;;;;;;20.28;nan;99534.81;4918380;29;20430;-75
2023/10/13 01:31:46;;;;;;;4.60;3.17;;;;;;;20.24;nan;99525.47;4912275;29;20516;-74
2023/10/13 01:34:21;;;;;;;3.83;2.80;;;;;;;20.21;nan;99523.97;4907983;29;20432;-74
2023/10/13 01:36:52;;;;;;;4.27;3.23;;;;;;;20.20;nan;99526.78;4932199;28;20438;-74
2023/10/13 01:39:26;;;;;;;4.27;3.87;;;;;;;20.18;nan;99526.13;4934539;28;20471;-75
2023/10/13 01:41:55;;;;;;;7.60;3.63;;;;;;;20.15;nan;99524.63;4913644;29;20492;-75
2023/10/13 01:44:27;;;;;;;4.40;3.30;;;;;;;20.15;nan;99526.47;4917844;29;20460;-75
2023/10/13 01:46:53;;;;;;;8.73;3.83;;;;;;;20.12;nan;99519.63;4932343;28;20904;-75
2023/10/13 01:49:21;;;;;;;3.90;3.47;;;;;;;20.08;nan;99518.25;4918122;29;21152;-75
2023/10/13 01:51:47;;;;;;;4.30;3.00;;;;;;;20.04;nan;99512.41;4915394;29;20226;-74
2023/10/13 01:54:13;;;;;;;3.60;2.73;;;;;;;20.01;nan;99507.41;4918331;29;20463;-75
2023/10/13 01:56:43;;;;;;;4.73;4.10;;;;;;;19.98;nan;99507.75;4909651;29;20549;-74
2023/10/13 01:59:10;;;;;;;3.30;3.00;;;;;;;19.95;nan;99518.69;4927282;28;20261;-74
2023/10/13 02:01:36;;;;;;;4.10;3.00;;;;;;;19.88;nan;99507.03;4916644;29;20493;-75
2023/10/13 02:04:04;;;;;;;4.80;2.60;;;;;;;19.79;nan;99502.63;4903248;29;20468;-75
2023/10/13 02:06:34;;;;;;;5.73;3.27;;;;;;;19.72;nan;99501.63;4902556;29;20210;-75
2023/10/13 02:09:10;;;;;;;3.90;2.80;;;;;;;19.65;nan;99498.69;4905714;29;20428;-75
2023/10/13 02:11:37;;;;;;;4.63;3.30;;;;;;;19.59;nan;99502.00;4909596;29;20445;-75
2023/10/13 02:14:03;;;;;;;3.03;2.73;;;;;;;19.53;nan;99500.81;4916448;29;21076;-75
2023/10/13 02:16:30;;;;;;;4.30;3.17;;;;;;;19.49;nan;99496.78;4907343;29;20949;-75
2023/10/13 02:19:03;;;;;;;4.37;2.60;;;;;;;19.45;nan;99490.13;4912798;29;20452;-73
2023/10/13 02:21:31;;;;;;;6.70;3.27;;;;;;;19.40;nan;99492.41;4913494;29;21559;-74
2023/10/13 02:24:03;;;;;;;4.87;3.40;;;;;;;19.34;nan;99482.38;4916043;29;20469;-74
2023/10/13 02:26:30;;;;;;;4.97;3.13;;;;;;;19.26;nan;99480.50;4908545;29;20432;-74
2023/10/13 02:29:03;;;;;;;5.20;3.13;;;;;;;19.16;nan;99477.94;4905562;29;20444;-75
2023/10/13 02:31:28;;;;;;;5.30;2.73;;;;;;;19.07;nan;99472.72;4911883;29;21241;-74
2023/10/13 02:33:54;;;;;;;8.03;3.90;;;;;;;18.97;nan;99476.31;4903196;29;20702;-73
2023/10/13 02:36:22;;;;;;;5.20;2.90;;;;;;;18.87;nan;99470.22;4902448;29;20716;-74
2023/10/13 02:38:50;;;;;;;6.17;3.40;;;;;;;18.72;nan;99477.91;4903607;29;20198;-73
2023/10/13 02:41:27;;;;;;;4.67;3.30;;;;;;;18.57;nan;99469.59;4914920;29;20557;-74
2023/10/13 02:43:54;;;;;;;6.87;4.00;;;;;;;18.45;nan;99468.19;4915156;29;20796;-74
2023/10/13 02:46:23;;;;;;;4.10;3.33;;;;;;;18.30;nan;99457.22;4910446;29;20520;-74
2023/10/13 02:48:57;;;;;;;4.70;3.33;;;;;;;18.22;nan;99454.47;4912679;29;20542;-74
2023/10/13 02:51:35;;;;;;;4.20;3.33;;;;;;;18.19;nan;99461.91;4900795;29;20559;-75
2023/10/13 02:54:10;;;;;;;6.97;3.67;;;;;;;18.17;nan;99456.75;4913307;23;20498;-80
2023/10/13 02:56:36;;;;;;;3.70;3.17;;;;;;;18.14;nan;99452.56;4888418;29;20541;-80
2023/10/13 02:59:05;;;;;;;4.83;3.33;;;;;;;18.13;nan;99447.41;4883853;29;20892;-79
2023/10/13 03:01:34;;;;;;;3.83;2.87;;;;;;;18.09;nan;99454.00;4887363;29;20459;-80
2023/10/13 03:04:03;;;;;;;6.37;3.87;;;;;;;18.04;nan;99450.97;4884772;29;21074;-79
2023/10/13 03:06:34;;;;;;;5.50;3.40;;;;;;;17.99;nan;99443.44;4888501;29;20471;-79
2023/10/13 03:09:21;;;;;;;5.83;3.90;;;;;;;17.95;nan;99446.53;4897490;29;20966;-79
2023/10/13 03:11:48;;;;;;;6.00;4.03;;;;;;;17.88;nan;99446.31;4887242;29;20471;-80
2023/10/13 03:14:31;;;;;;;3.67;3.37;;;;;;;17.81;nan;99448.72;4888970;29;21060;-80
2023/10/13 03:17:09;;;;;;;4.70;3.30;;;;;;;17.79;nan;99444.53;4886859;29;20521;-79
2023/10/13 03:19:38;;;;;;;8.07;4.60;;;;;;;17.73;nan;99443.25;4887096;29;20459;-80
2023/10/13 03:22:12;;;;;;;5.47;3.77;;;;;;;17.68;nan;99440.22;4892418;29;20546;-80
2023/10/13 03:24:46;;;;;;;4.20;3.37;;;;;;;17.64;nan;99433.53;4898140;29;20464;-80
2023/10/13 03:27:23;;;;;;;6.47;3.87;;;;;;;17.59;nan;99438.44;4888710;29;20490;-80
2023/10/13 03:29:54;;;;;;;5.00;2.83;;;;;;;17.55;nan;99437.06;4891200;29;20553;-80
2023/10/13 03:32:20;;;;;;;4.50;3.50;;;;;;;17.47;nan;99433.34;4891913;29;20834;-80
2023/10/13 03:34:54;;;;;;;4.90;3.80;;;;;;;17.44;nan;99438.94;4884308;29;20544;-80
2023/10/13 03:37:39;;;;;;;4.67;3.07;;;;;;;17.42;nan;99432.09;4886885;29;20523;-80
2023/10/13 03:43:09;;;;;;;6.27;3.93;;;;;;;17.28;nan;99422.75;4885342;29;20562;-80
2023/10/13 03:45:39;;;;;;;4.50;3.80;;;;;;;17.18;nan;99425.47;4886068;29;21045;-80
2023/10/13 03:51:03;;;;;;;11.07;3.70;;;;;;;16.93;nan;99426.94;4887989;29;20596;-80
2023/10/13 03:53:36;;;;;;;4.63;3.43;;;;;;;16.86;nan;99423.16;4894616;29;20470;-80
2023/10/13 03:56:08;;;;;;;4.47;3.63;;;;;;;16.79;nan;99425.53;4891675;29;20463;-79
2023/10/13 03:58:38;;;;;;;4.40;3.50;;;;;;;16.77;nan;99421.38;4885150;29;20486;-80
2023/10/13 04:01:05;;;;;;;6.73;4.10;;;;;;;16.73;nan;99417.28;4887431;29;20458;-80
2023/10/13 04:03:36;;;;;;;6.93;4.23;;;;;;;16.66;nan;99421.47;4887648;29;20475;-80
2023/10/13 04:06:06;;;;;;;6.33;3.70;;;;;;;16.59;nan;99416.75;4889976;29;20455;-80
2023/10/13 04:09:51;;;;;;;5.67;4.40;;;;;;;16.56;nan;99411.72;4886957;29;20470;-80
2023/10/13 04:11:49;;;;;;;5.43;4.13;;;;;;;16.55;nan;99407.41;4885444;29;20464;-80
2023/10/13 04:14:23;;;;;;;9.23;3.90;;;;;;;16.58;nan;99403.63;4888404;29;20475;-80
2023/10/13 04:16:54;;;;;;;7.20;4.00;;;;;;;16.58;nan;99396.50;4891950;29;20454;-80
2023/10/13 04:19:22;;;;;;;4.60;3.37;;;;;;;16.62;nan;99404.19;4886348;29;20508;-79
2023/10/13 04:21:57;;;;;;;4.27;3.80;;;;;;;16.58;nan;99403.63;4889663;29;20553;-80
2023/10/13 04:24:39;;;;;;;8.07;4.30;;;;;;;16.54;nan;99400.41;4884882;29;20513;-79
2023/10/13 04:29:55;;;;;;;5.63;4.27;;;;;;;16.50;nan;99404.34;4881829;29;21069;-80
2023/10/13 04:32:32;;;;;;;7.50;3.83;;;;;;;16.50;nan;99401.69;4876964;29;20469;-80
2023/10/13 04:35:17;;;;;;;9.00;4.10;;;;;;;16.49;nan;99397.34;4876046;29;20915;-80
2023/10/13 04:38:00;;;;;;;5.40;4.57;;;;;;;16.47;nan;99401.97;4882479;29;20550;-80
2023/10/13 04:40:28;;;;;;;4.70;3.43;;;;;;;16.46;nan;99400.28;4880143;29;20470;-79
2023/10/13 04:42:56;;;;;;;4.50;4.07;;;;;;;16.45;nan;99397.78;4888345;29;20477;-81
2023/10/13 04:50:45;;;;;;;5.70;4.17;;;;;;;16.39;nan;99393.88;4891139;29;20471;-80
2023/10/13 04:53:29;;;;;;;7.93;4.10;;;;;;;16.36;nan;99395.00;4882048;29;20490;-80
2023/10/13 05:45:24;;;;;;;8.52;6.28;;;;;;;15.47;nan;99388.78;4881796;29;20478;-78
2023/10/13 05:50:29;;;;;;;13.83;6.90;;;;;;;15.48;nan;99387.84;4884039;29;21003;-78
2023/10/13 06:31:05;;;;;;;7.15;5.30;;;;;;;15.43;nan;99396.19;4847633;29;20813;-78
2023/10/13 06:33:33;;;;;;;11.52;4.80;;;;;;;15.50;nan;99396.50;4830805;29;20212;-78
2023/10/13 06:36:03;;;;;;;9.48;5.53;;;;;;;15.56;nan;99395.13;4850973;29;20456;-78
2023/10/13 06:38:36;;;;;;;30.73;7.07;;;;;;;15.62;nan;99395.41;4852468;29;20806;-78
2023/10/13 06:41:05;;;;;;;7.17;4.43;;;;;;;15.68;nan;99400.19;4854505;29;20616;-78
2023/10/13 06:43:43;;;;;;;9.23;4.70;;;;;;;15.76;nan;99396.88;4854220;29;20478;-78
2023/10/13 06:46:14;;;;;;;8.20;4.63;;;;;;;15.82;nan;99396.31;4851632;29;20476;-78
2023/10/13 06:48:41;;;;;;;8.13;3.70;;;;;;;15.90;nan;99393.84;4865501;29;20993;-78
2023/10/13 06:51:21;;;;;;;8.50;5.30;;;;;;;15.99;nan;99396.66;4860890;29;20555;-78
2023/10/13 06:53:47;;;;;;;6.40;4.10;;;;;;;16.09;nan;99386.88;4868460;29;20493;-78
2023/10/13 06:56:21;;;;;;;6.00;3.77;;;;;;;16.22;nan;99389.25;4875351;29;20462;-79
2023/10/13 06:58:46;;;;;;;8.03;4.60;;;;;;;16.30;nan;99392.03;4874314;29;21092;-78
2023/10/13 07:01:16;;;;;;;8.87;5.47;;;;;;;16.37;nan;99388.72;4876481;29;21225;-78
2023/10/13 07:03:48;;;;;;;9.03;4.10;;;;;;;16.46;nan;99386.19;4875910;29;20293;-79
2023/10/13 07:06:19;;;;;;;5.00;4.43;;;;;;;16.55;nan;99385.34;4874617;29;20865;-79
2023/10/13 07:08:56;;;;;;;7.27;4.60;;;;;;;16.64;nan;99387.16;4872850;29;20551;-79
2023/10/13 07:11:37;;;;;;;7.87;4.17;;;;;;;16.75;nan;99388.81;4867510;29;20462;-79
2023/10/13 07:14:16;;;;;;;6.07;4.43;;;;;;;16.88;nan;99388.53;4867774;29;20659;-79
2023/10/13 07:16:59;;;;;;;4.77;3.80;;;;;;;17.01;nan;99395.22;4868546;29;20968;-79
2023/10/13 07:19:27;;;;;;;6.60;3.40;;;;;;;17.10;nan;99382.88;4872674;29;20885;-79
2023/10/13 07:21:58;;;;;;;4.10;3.30;;;;;;;17.20;nan;99388.13;4873055;29;20571;-79
2023/10/13 07:24:31;;;;;;;7.30;4.47;;;;;;;17.29;nan;99395.25;4869209;29;20475;-79
2023/10/13 07:27:03;;;;;;;5.77;4.63;;;;;;;17.38;nan;99390.88;4864704;29;21195;-79
2023/10/13 07:29:28;;;;;;;7.33;4.13;;;;;;;17.46;nan;99390.97;4875050;29;20870;-79
2023/10/13 07:31:54;;;;;;;6.70;3.60;;;;;;;17.54;nan;99395.56;4869286;29;21052;-79
2023/10/13 07:34:26;;;;;;;14.43;4.43;;;;;;;17.62;nan;99393.00;4872685;29;20303;-79
2023/10/13 07:36:59;;;;;;;5.43;3.90;;;;;;;17.68;nan;99387.09;4868476;29;20282;-78
2023/10/13 07:39:39;;;;;;;7.63;4.60;;;;;;;17.78;nan;99390.53;4871441;29;20836;-79
2023/10/13 07:42:05;;;;;;;10.63;4.63;;;;;;;17.89;nan;99390.34;4873590;29;20457;-79
2023/10/13 07:44:33;;;;;;;9.40;3.50;;;;;;;18.00;nan;99391.94;4879533;29;20853;-79
2023/10/13 07:47:04;;;;;;;4.57;3.50;;;;;;;18.12;nan;99389.94;4871383;29;20557;-79
2023/10/13 07:49:31;;;;;;;11.37;4.10;;;;;;;18.25;nan;99389.53;4877233;29;20454;-79
2023/10/13 07:52:14;;;;;;;3.90;3.33;;;;;;;18.38;nan;99391.81;4878532;29;20454;-79
2023/10/13 07:54:47;;;;;;;5.77;3.53;;;;;;;18.50;nan;99387.94;4877081;29;20476;-79
2023/10/13 07:57:14;;;;;;;6.60;3.67;;;;;;;18.63;nan;99393.66;4873966;29;20527;-79
2023/10/13 07:59:47;;;;;;;11.20;3.97;;;;;;;18.79;nan;99393.00;4878518;29;20984;-79
2023/10/13 08:02:20;;;;;;;8.63;3.80;;;;;;;18.93;nan;99396.91;4879127;29;21007;-79
2023/10/13 08:04:49;;;;;;;7.93;3.80;;;;;;;19.11;nan;99394.19;4879206;29;20457;-79
2023/10/13 08:07:14;;;;;;;7.63;4.03;;;;;;;19.73;nan;99388.69;4881017;29;21000;-79
2023/10/13 08:09:40;;;;;;;7.67;4.40;;;;;;;20.70;nan;99384.50;4882363;29;20203;-79
2023/10/13 08:12:11;;;;;;;7.93;3.97;;;;;;;21.87;nan;99375.81;4887963;29;20217;-79
2023/10/13 08:14:39;;;;;;;11.03;3.70;;;;;;;23.02;nan;99374.09;4887918;29;20480;-79
2023/10/13 08:17:11;;;;;;;4.47;3.10;;;;;;;24.17;nan;99371.63;4882168;29;21054;-80
2023/10/13 08:19:41;;;;;;;6.00;3.47;;;;;;;25.12;nan;99364.13;4880168;29;20486;-80
2023/10/13 08:27:46;;;;;;;6.43;3.70;;;;;;;26.80;nan;99350.97;4880226;29;20568;-80
2023/10/13 08:30:42;;;;;;;3.33;2.23;;;;;;;26.88;nan;99356.13;4873959;29;20441;-80
2023/10/13 08:33:16;;;;;;;5.50;2.80;;;;;;;26.86;nan;99361.72;4883654;29;20542;-80
2023/10/13 08:35:54;;;;;;;6.33;4.70;;;;;;;26.85;nan;99349.28;4881333;29;20460;-80
2023/10/13 08:38:28;;;;;;;5.50;2.53;;;;;;;26.76;nan;99352.41;4885480;29;20494;-80
2023/10/13 08:43:45;;;;;;;4.20;2.80;;;;;;;26.48;nan;99348.03;4884793;29;20485;-80
2023/10/13 08:46:24;;;;;;;6.90;3.27;;;;;;;26.48;nan;99342.66;4884267;29;20809;-80
2023/10/13 08:48:52;;;;;;;5.13;2.57;;;;;;;26.52;nan;99343.94;4886592;29;20484;-80
2023/10/13 08:51:43;;;;;;;6.80;2.73;;;;;;;26.44;nan;99347.63;4889517;29;20542;-80
2023/10/13 08:54:18;;;;;;;4.67;3.23;;;;;;;26.30;nan;99355.91;4880437;29;20599;-80
2023/10/13 08:56:55;;;;;;;8.20;3.00;;;;;;;26.16;nan;99355.06;4880496;29;20885;-80
2023/10/13 08:59:38;;;;;;;5.13;3.10;;;;;;;26.02;nan;99348.81;4884044;29;20479;-80
2023/10/13 09:02:17;;;;;;;4.03;2.57;;;;;;;25.85;nan;99348.38;4876272;29;21165;-80
2023/10/13 09:04:47;;;;;;;5.33;3.17;;;;;;;25.71;nan;99350.16;4881388;29;21099;-80
2023/10/13 09:07:15;;;;;;;7.27;2.87;;;;;;;25.56;nan;99352.16;4875237;29;20845;-80
2023/10/13 09:12:13;;;;;;;7.67;2.53;;;;;;;25.10;nan;99342.00;4875911;29;20877;-80
2023/10/13 09:14:44;;;;;;;9.47;3.60;;;;;;;24.89;nan;99345.59;4878660;29;20745;-80
2023/10/13 09:19:49;;;;;;;6.67;3.23;;;;;;;24.78;nan;99340.75;4878509;29;20463;-80
2023/10/13 09:22:38;;;;;;;9.87;4.50;;;;;;;24.89;nan;99337.53;4892783;29;20961;-80
2023/10/13 09:25:13;;;;;;;7.63;3.40;;;;;;;25.01;nan;99327.91;4876104;29;20939;-80
2023/10/13 09:27:39;;;;;;;5.40;3.73;;;;;;;25.15;nan;99331.50;4878749;29;20500;-80
2023/10/13 09:30:22;;;;;;;5.73;3.17;;;;;;;25.23;nan;99331.34;4878908;29;21075;-80
2023/10/13 09:33:01;;;;;;;2.83;2.30;;;;;;;25.33;nan;99321.06;4883102;29;20481;-80
2023/10/13 09:35:28;;;;;;;10.50;3.67;;;;;;;25.43;nan;99315.28;4885347;29;20495;-80
2023/10/13 09:37:57;;;;;;;8.10;3.67;;;;;;;25.50;nan;99312.66;4878125;29;20898;-80
2023/10/13 09:42:59;;;;;;;3.90;3.17;;;;;;;25.79;nan;99309.63;4874859;29;20569;-80
2023/10/13 09:45:36;;;;;;;3.03;2.73;;;;;;;26.00;nan;99302.44;4875541;29;20534;-80
2023/10/13 09:48:06;;;;;;;7.70;3.10;;;;;;;26.23;nan;99300.19;4878955;29;20501;-80
2023/10/13 09:50:40;;;;;;;4.27;3.17;;;;;;;26.42;nan;99285.06;4880413;29;21003;-80
2023/10/13 09:53:10;;;;;;;4.73;2.77;;;;;;;26.65;nan;99295.44;4887317;29;20474;-80
2023/10/13 09:55:39;;;;;;;9.07;3.50;;;;;;;26.87;nan;99284.41;4883242;29;20459;-80
2023/10/13 09:58:11;;;;;;;8.43;3.40;;;;;;;26.95;nan;99284.19;4886637;29;20450;-80
2023/10/13 10:00:48;;;;;;;10.73;2.93;;;;;;;27.00;nan;99280.81;4883564;29;21034;-79
2023/10/13 10:06:14;;;;;;;4.20;2.87;;;;;;;27.21;nan;99277.88;4881474;29;20462;-80
2023/10/13 10:08:48;;;;;;;9.70;3.40;;;;;;;27.36;nan;99275.75;4883650;29;21213;-80
2023/10/13 10:11:48;;;;;;;7.67;3.50;;;;;;;27.46;nan;99277.97;4884639;29;20467;-80
2023/10/13 10:14:37;;;;;;;4.27;3.00;;;;;;;27.54;nan;99266.09;4884184;29;20947;-80
2023/10/13 10:17:09;;;;;;;7.80;3.30;;;;;;;27.64;nan;99268.34;4883442;29;20465;-80
2023/10/13 10:19:47;;;;;;;5.13;2.70;;;;;;;27.72;nan;99260.81;4882466;29;20450;-80
2023/10/13 10:22:20;;;;;;;4.33;2.07;;;;;;;27.83;nan;99261.19;4881690;29;20511;-81
2023/10/13 10:25:26;;;;;;;10.87;3.83;;;;;;;27.90;nan;99254.69;4889162;29;20462;-80
2023/10/13 10:27:56;;;;;;;2.70;2.50;;;;;;;27.98;nan;99246.34;4875494;29;20471;-80
2023/10/13 10:30:29;;;;;;;4.87;2.57;;;;;;;28.09;nan;99252.06;4872548;29;20458;-78
2023/10/13 10:33:06;;;;;;;7.17;4.40;;;;;;;28.19;nan;99242.44;4872904;29;20475;-80
2023/10/13 10:35:32;;;;;;;8.10;2.20;;;;;;;28.31;nan;99244.41;4871877;29;20473;-80
2023/10/13 10:41:01;;;;;;;5.97;2.53;;;;;;;28.46;nan;99236.78;4874010;29;20592;-75
2023/10/13 10:43:29;;;;;;;5.97;2.90;;;;;;;28.45;nan;99235.16;4875783;29;20470;-73
2023/10/13 10:45:59;;;;;;;4.57;2.23;;;;;;;28.48;nan;99220.38;4881437;29;20783;-80
2023/10/13 10:48:31;;;;;;;4.37;2.50;;;;;;;28.55;nan;99215.72;4878135;29;21775;-80
2023/10/13 10:50:58;;;;;;;4.57;2.90;;;;;;;28.61;nan;99212.13;4882341;29;20459;-79
2023/10/13 10:53:33;;;;;;;6.57;2.80;;;;;;;28.68;nan;99224.50;4875965;29;20494;-81
2023/10/13 10:56:19;;;;;;;2.60;2.20;;;;;;;28.75;nan;99213.63;4881252;29;20763;-79
2023/10/13 10:58:54;;;;;;;4.63;2.63;;;;;;;28.84;nan;99212.28;4880843;29;20561;-80
2023/10/13 11:01:23;;;;;;;3.07;2.30;;;;;;;28.83;nan;99207.91;4883530;29;20457;-80
2023/10/13 11:04:14;;;;;;;7.67;3.00;;;;;;;28.82;nan;99205.44;4877684;29;20471;-79
2023/10/13 11:06:45;;;;;;;5.73;2.83;;;;;;;28.86;nan;99199.34;4880400;29;20538;-79
2023/10/13 11:09:18;;;;;;;3.57;2.60;;;;;;;28.89;nan;99198.91;4881980;29;21228;-79
2023/10/13 11:11:52;;;;;;;3.53;2.07;;;;;;;28.89;nan;99181.84;4882694;29;20681;-79
2023/10/13 11:14:25;;;;;;;4.40;3.47;;;;;;;28.84;nan;99187.09;4881491;29;20498;-80
2023/10/13 11:16:59;;;;;;;4.30;2.23;;;;;;;28.86;nan;99176.88;4873788;29;20466;-80
2023/10/13 11:19:39;;;;;;;5.20;2.67;;;;;;;28.94;nan;99167.66;4885850;29;20458;-79
2023/10/13 11:22:33;;;;;;;3.80;2.07;;;;;;;29.04;nan;99170.66;4881330;29;20466;-79
2023/10/13 11:24:59;;;;;;;6.33;2.23;;;;;;;29.11;nan;99155.16;4877734;29;20514;-78
2023/10/13 11:27:44;;;;;;;4.33;3.10;;;;;;;29.12;nan;99143.31;4876811;29;20589;-79
2023/10/13 11:30:25;;;;;;;4.70;3.30;;;;;;;29.14;nan;99138.50;4880319;29;20849;-79
2023/10/13 11:33:07;;;;;;;2.50;2.30;;;;;;;29.15;nan;99142.03;4877958;29;20471;-79
2023/10/13 11:35:48;;;;;;;3.60;2.50;;;;;;;29.16;nan;99133.66;4876718;29;20470;-79
2023/10/13 11:38:24;;;;;;;4.50;2.40;;;;;;;29.23;nan;99126.28;4878318;29;20929;-79
2023/10/13 11:46:13;;;;;;;3.07;2.50;;;;;;;29.37;nan;99126.09;4875881;29;20477;-79
2023/10/13 11:48:41;;;;;;;6.60;2.60;;;;;;;29.39;nan;99121.28;4878868;29;20980;-79
2023/10/13 11:51:07;;;;;;;3.73;2.40;;;;;;;29.42;nan;99115.41;4876348;29;21037;-79
2023/10/13 11:53:37;;;;;;;4.03;2.53;;;;;;;29.41;nan;99125.41;4879557;29;20552;-79
2023/10/13 11:56:09;;;;;;;4.63;2.70;;;;;;;29.45;nan;99106.81;4881757;29;20498;-79
2023/10/13 11:58:39;;;;;;;5.80;2.87;;;;;;;29.48;nan;99107.16;4872845;29;20494;-79
2023/10/13 12:09:41;;;;;;;5.30;3.10;;;;;;;29.54;nan;99102.69;4874887;29;20498;-80
2023/10/13 12:11:54;;;;;;;6.07;3.77;;;;;;;29.60;nan;99104.50;4876201;29;20498;-80
2023/10/13 12:14:21;;;;;;;4.43;2.77;;;;;;;29.59;nan;99097.41;4884349;29;20471;-80
2023/10/13 12:16:51;;;;;;;5.63;2.80;;;;;;;29.61;nan;99089.06;4880232;29;20458;-79
2023/10/13 12:19:29;;;;;;;3.37;2.40;;;;;;;29.60;nan;99099.06;4883199;29;20530;-79
2023/10/13 12:21:55;;;;;;;2.93;2.30;;;;;;;29.62;nan;99088.81;4877555;29;20447;-80
2023/10/13 12:24:30;;;;;;;6.13;2.90;;;;;;;29.62;nan;99091.53;4886364;29;20569;-80
2023/10/13 12:26:57;;;;;;;6.20;2.70;;;;;;;29.65;nan;99085.69;4871223;29;20474;-80
2023/10/13 12:29:29;;;;;;;5.53;2.70;;;;;;;29.65;nan;99072.16;4873366;29;21184;-80
2023/10/13 12:32:07;;;;;;;6.53;2.83;;;;;;;29.67;nan;99078.13;4873938;29;20800;-80
2023/10/13 12:51:19;;;;;;;5.30;2.50;;;;;;;29.75;nan;99034.47;4885727;29;21220;-80
2023/10/13 12:53:49;;;;;;;4.20;1.97;;;;;;;29.76;nan;99035.31;4882453;29;20531;-80
2023/10/13 12:56:15;;;;;;;5.60;2.97;;;;;;;29.74;nan;99038.25;4879473;29;21318;-80
2023/10/13 12:58:41;;;;;;;4.63;3.07;;;;;;;29.77;nan;99026.94;4872276;29;20510;-80
2023/10/13 13:01:07;;;;;;;3.27;2.43;;;;;;;29.80;nan;99024.84;4873482;29;20473;-80
2023/10/13 13:03:33;;;;;;;6.37;2.60;;;;;;;29.80;nan;99030.25;4870879;29;20507;-80
2023/10/13 13:06:03;;;;;;;3.60;2.63;;;;;;;29.82;nan;99025.44;4875224;29;20534;-80
2023/10/13 13:08:35;;;;;;;2.70;2.47;;;;;;;29.87;nan;99018.25;4874992;29;20512;-80
2023/10/13 13:11:01;;;;;;;8.33;2.53;;;;;;;29.94;nan;99020.81;4875747;29;21249;-80
2023/10/13 13:13:27;;;;;;;5.23;2.90;;;;;;;29.95;nan;99019.75;4881755;29;20481;-80
2023/10/13 13:15:52;;;;;;;4.53;2.43;;;;;;;29.99;nan;99013.59;4883234;29;20698;-80
2023/10/13 13:18:19;;;;;;;2.70;1.80;;;;;;;30.04;nan;99003.97;4879066;29;20626;-80
2023/10/13 13:20:54;;;;;;;4.53;3.37;;;;;;;30.05;nan;99002.88;4881043;29;20231;-80
2023/10/13 13:23:25;;;;;;;4.10;2.37;;;;;;;30.05;nan;99006.41;4885360;29;20497;-80
2023/10/13 13:25:51;;;;;;;5.13;2.63;;;;;;;30.07;nan;99009.72;4896772;29;20466;-80
2023/10/13 13:28:17;;;;;;;3.73;2.00;;;;;;;30.05;nan;99003.69;4892874;29;20478;-80
2023/10/13 13:30:43;;;;;;;4.97;1.90;;;;;;;30.03;nan;98994.16;4889370;29;20739;-80
2023/10/13 13:33:11;;;;;;;3.17;2.63;;;;;;;30.01;nan;98986.31;4883512;29;20473;-80
2023/10/13 13:35:44;;;;;;;3.80;2.80;;;;;;;29.97;nan;98985.13;4895425;29;20235;-80
2023/10/13 13:38:09;;;;;;;4.43;2.77;;;;;;;29.99;nan;98985.72;4888789;29;20493;-82
2023/10/13 13:40:39;;;;;;;4.03;2.37;;;;;;;30.00;nan;98981.94;4892008;29;20485;-81
2023/10/13 13:43:06;;;;;;;6.10;2.40;;;;;;;30.00;nan;98984.63;4889990;29;20763;-79
2023/10/13 13:45:34;;;;;;;4.00;2.40;;;;;;;30.01;nan;98972.75;4888799;29;20467;-80
2023/10/13 13:47:59;;;;;;;6.10;2.93;;;;;;;29.99;nan;98975.69;4888952;29;20497;-78
2023/10/13 13:50:28;;;;;;;3.90;2.47;;;;;;;29.99;nan;98974.88;4887054;29;21025;-80
2023/10/13 13:52:56;;;;;;;5.47;2.60;;;;;;;29.99;nan;98964.03;4884460;29;20211;-79
2023/10/13 13:55:28;;;;;;;2.63;2.33;;;;;;;29.98;nan;98962.41;4887876;29;20475;-78
2023/10/13 13:57:56;;;;;;;10.40;2.80;;;;;;;29.98;nan;98951.59;4886895;29;20982;-78
2023/10/13 14:00:37;;;;;;;3.10;1.80;;;;;;;29.99;nan;98945.09;4916569;23;20786;-77
2023/10/13 14:03:12;;;;;;;3.43;2.47;;;;;;;29.98;nan;98943.47;4950079;28;20478;-78
2023/10/13 14:05:41;;;;;;;3.80;2.60;;;;;;;29.99;nan;98936.97;4956990;28;20470;-78
2023/10/13 14:08:11;;;;;;;3.93;2.43;;;;;;;29.98;nan;98936.16;4962301;28;20514;-79
2023/10/13 14:13:47;;;;;;;4.60;2.37;;;;;;;29.95;nan;98922.28;4981818;28;20458;-78
2023/10/13 14:16:16;;;;;;;4.67;3.10;;;;;;;29.93;nan;98921.69;4976471;28;20446;-77
2023/10/13 14:18:46;;;;;;;3.30;2.13;;;;;;;29.93;nan;98917.09;4975316;28;20453;-78
2023/10/13 14:21:16;;;;;;;5.73;2.90;;;;;;;29.92;nan;98911.91;4977165;28;20486;-79
2023/10/13 14:23:47;;;;;;;4.70;2.40;;;;;;;29.91;nan;98915.69;4979846;28;20467;-79
2023/10/13 14:26:20;;;;;;;5.53;3.10;;;;;;;29.88;nan;98910.75;4975888;28;20461;-79
2023/10/13 14:28:51;;;;;;;6.40;3.30;;;;;;;29.89;nan;98910.50;4973016;28;20467;-78
2023/10/13 14:31:32;;;;;;;3.00;2.20;;;;;;;29.84;nan;98907.72;4976034;28;20458;-80
2023/10/13 14:34:00;;;;;;;4.87;2.77;;;;;;;29.83;nan;98905.22;4971323;28;20455;-79
2023/10/13 14:36:28;;;;;;;3.97;2.77;;;;;;;29.80;nan;98897.59;4971740;28;20462;-79
2023/10/13 14:38:56;;;;;;;2.97;2.17;;;;;;;29.77;nan;98893.50;4975153;28;20680;-78
2023/10/13 14:41:21;;;;;;;6.53;3.03;;;;;;;29.75;nan;98896.41;4977302;28;21002;-79
2023/10/13 14:43:47;;;;;;;4.53;2.73;;;;;;;29.74;nan;98894.78;4976776;28;20972;-80
2023/10/13 14:46:17;;;;;;;4.40;2.90;;;;;;;29.72;nan;98898.78;4977387;28;20459;-79
2023/10/13 14:48:43;;;;;;;7.77;3.83;;;;;;;29.72;nan;98893.38;4978806;28;20733;-79
2023/10/13 14:51:17;;;;;;;3.93;3.50;;;;;;;29.68;nan;98890.34;4976047;28;20471;-78
2023/10/13 14:53:46;;;;;;;5.00;3.23;;;;;;;29.65;nan;98892.69;4981814;28;20545;-78
2023/10/13 14:56:16;;;;;;;7.20;2.83;;;;;;;29.62;nan;98893.13;4977782;28;20536;-78